NCAR-RAP Real-Time Weather Data

Output produced by METARs form (12 August 2020  18:40 UTC)
found at http://weather.rap.ucar.edu/surface/
 
KSLC 121754Z 00000KT 10SM FEW100 FEW170 31/02 A3003 RMK AO2 SLP107 ACC NW ACSL DSNT SE T03060022 10311 20206 52004